sensor_id;sensor_type;location;lat;lon;timestamp;temperature;humidity
7972;DHT22;4031;49.758;6.120;2023-04-25T00:00:28;7.00;99.90
7972;DHT22;4031;49.758;6.120;2023-04-25T00:02:54;7.00;99.90
7972;DHT22;4031;49.758;6.120;2023-04-25T00:05:25;7.00;99.90
7972;DHT22;4031;49.758;6.120;2023-04-25T00:07:51;7.00;99.90
7972;DHT22;4031;49.758;6.120;2023-04-25T00:10:18;7.00;99.90
7972;DHT22;4031;49.758;6.120;2023-04-25T00:12:44;7.00;99.90
7972;DHT22;4031;49.758;6.120;2023-04-25T00:15:11;7.00;99.90
7972;DHT22;4031;49.758;6.120;2023-04-25T00:17:37;7.00;99.90
7972;DHT22;4031;49.758;6.120;2023-04-25T00:20:04;7.00;99.90
7972;DHT22;4031;49.758;6.120;2023-04-25T00:22:30;7.00;99.90
7972;DHT22;4031;49.758;6.120;2023-04-25T00:24:56;7.10;99.90
7972;DHT22;4031;49.758;6.120;2023-04-25T00:27:25;7.00;99.90
7972;DHT22;4031;49.758;6.120;2023-04-25T00:29:51;7.00;99.90
7972;DHT22;4031;49.758;6.120;2023-04-25T00:32:17;7.00;99.90
7972;DHT22;4031;49.758;6.120;2023-04-25T00:34:43;7.00;99.90
7972;DHT22;4031;49.758;6.120;2023-04-25T00:37:08;7.00;99.90
7972;DHT22;4031;49.758;6.120;2023-04-25T00:39:35;6.90;99.90
7972;DHT22;4031;49.758;6.120;2023-04-25T00:42:02;6.90;99.90
7972;DHT22;4031;49.758;6.120;2023-04-25T00:44:29;6.90;99.90
7972;DHT22;4031;49.758;6.120;2023-04-25T00:46:55;6.90;99.90
7972;DHT22;4031;49.758;6.120;2023-04-25T00:49:21;6.80;99.90
7972;DHT22;4031;49.758;6.120;2023-04-25T00:51:47;6.70;99.90
7972;DHT22;4031;49.758;6.120;2023-04-25T00:54:13;6.70;99.90
7972;DHT22;4031;49.758;6.120;2023-04-25T00:56:39;6.60;99.90
7972;DHT22;4031;49.758;6.120;2023-04-25T00:59:05;6.50;99.90
7972;DHT22;4031;49.758;6.120;2023-04-25T01:01:31;6.40;99.90
7972;DHT22;4031;49.758;6.120;2023-04-25T01:03:59;6.30;99.90
7972;DHT22;4031;49.758;6.120;2023-04-25T01:06:25;6.30;99.90
7972;DHT22;4031;49.758;6.120;2023-04-25T01:08:51;6.20;99.90
7972;DHT22;4031;49.758;6.120;2023-04-25T01:11:17;6.10;99.90
7972;DHT22;4031;49.758;6.120;2023-04-25T01:13:43;6.00;99.90
7972;DHT22;4031;49.758;6.120;2023-04-25T01:16:09;6.00;99.90
7972;DHT22;4031;49.758;6.120;2023-04-25T01:18:36;5.90;99.90
7972;DHT22;4031;49.758;6.120;2023-04-25T01:21:12;5.80;99.90
7972;DHT22;4031;49.758;6.120;2023-04-25T01:23:40;5.80;99.90
7972;DHT22;4031;49.758;6.120;2023-04-25T01:26:09;5.80;99.90
7972;DHT22;4031;49.758;6.120;2023-04-25T01:28:35;5.70;99.90
7972;DHT22;4031;49.758;6.120;2023-04-25T01:31:02;5.70;99.90
7972;DHT22;4031;49.758;6.120;2023-04-25T01:33:27;5.70;99.90
7972;DHT22;4031;49.758;6.120;2023-04-25T01:35:54;5.70;99.90
7972;DHT22;4031;49.758;6.120;2023-04-25T01:38:20;5.70;99.90
7972;DHT22;4031;49.758;6.120;2023-04-25T01:40:46;5.70;99.90
7972;DHT22;4031;49.758;6.120;2023-04-25T01:43:12;5.70;99.90
7972;DHT22;4031;49.758;6.120;2023-04-25T01:45:40;5.70;99.90
7972;DHT22;4031;49.758;6.120;2023-04-25T01:48:10;5.70;99.90
7972;DHT22;4031;49.758;6.120;2023-04-25T01:50:38;5.80;99.90
7972;DHT22;4031;49.758;6.120;2023-04-25T01:53:05;5.80;99.90
7972;DHT22;4031;49.758;6.120;2023-04-25T01:55:31;5.80;99.90
7972;DHT22;4031;49.758;6.120;2023-04-25T01:57:57;5.90;99.90
7972;DHT22;4031;49.758;6.120;2023-04-25T02:00:22;5.90;99.90
7972;DHT22;4031;49.758;6.120;2023-04-25T02:02:48;5.90;99.90
7972;DHT22;4031;49.758;6.120;2023-04-25T02:05:16;5.90;99.90
7972;DHT22;4031;49.758;6.120;2023-04-25T02:07:42;5.90;99.90
7972;DHT22;4031;49.758;6.120;2023-04-25T02:10:08;5.90;99.90
7972;DHT22;4031;49.758;6.120;2023-04-25T02:12:35;5.90;99.90
7972;DHT22;4031;49.758;6.120;2023-04-25T02:15:01;5.90;99.90
7972;DHT22;4031;49.758;6.120;2023-04-25T02:17:27;6.00;99.90
7972;DHT22;4031;49.758;6.120;2023-04-25T02:19:53;6.00;99.90
7972;DHT22;4031;49.758;6.120;2023-04-25T02:22:19;6.00;99.90
7972;DHT22;4031;49.758;6.120;2023-04-25T02:24:46;6.00;99.90
7972;DHT22;4031;49.758;6.120;2023-04-25T02:27:11;6.00;99.90
7972;DHT22;4031;49.758;6.120;2023-04-25T02:29:38;6.10;99.90
7972;DHT22;4031;49.758;6.120;2023-04-25T02:32:04;6.10;99.90
7972;DHT22;4031;49.758;6.120;2023-04-25T02:34:29;6.10;99.90
7972;DHT22;4031;49.758;6.120;2023-04-25T02:36:55;6.00;99.90
7972;DHT22;4031;49.758;6.120;2023-04-25T02:39:21;6.00;99.90
7972;DHT22;4031;49.758;6.120;2023-04-25T02:41:47;6.10;99.90
7972;DHT22;4031;49.758;6.120;2023-04-25T02:44:13;6.10;99.90
7972;DHT22;4031;49.758;6.120;2023-04-25T02:46:39;6.10;99.90
7972;DHT22;4031;49.758;6.120;2023-04-25T02:49:04;6.10;99.90
7972;DHT22;4031;49.758;6.120;2023-04-25T02:51:30;6.10;99.90
7972;DHT22;4031;49.758;6.120;2023-04-25T02:53:56;6.00;99.90
7972;DHT22;4031;49.758;6.120;2023-04-25T02:56:22;6.00;99.90
7972;DHT22;4031;49.758;6.120;2023-04-25T02:58:47;6.00;99.90
7972;DHT22;4031;49.758;6.120;2023-04-25T03:01:13;6.00;99.90
7972;DHT22;4031;49.758;6.120;2023-04-25T03:03:39;5.90;99.90
7972;DHT22;4031;49.758;6.120;2023-04-25T03:06:05;5.90;99.90
7972;DHT22;4031;49.758;6.120;2023-04-25T03:08:31;5.80;99.90
7972;DHT22;4031;49.758;6.120;2023-04-25T03:10:58;5.80;99.90
7972;DHT22;4031;49.758;6.120;2023-04-25T03:13:24;5.80;99.90
7972;DHT22;4031;49.758;6.120;2023-04-25T03:15:50;5.70;99.90
7972;DHT22;4031;49.758;6.120;2023-04-25T03:18:15;5.70;99.90
7972;DHT22;4031;49.758;6.120;2023-04-25T03:20:41;5.70;99.90
7972;DHT22;4031;49.758;6.120;2023-04-25T03:23:08;5.70;99.90
7972;DHT22;4031;49.758;6.120;2023-04-25T03:25:33;5.70;99.90
7972;DHT22;4031;49.758;6.120;2023-04-25T03:27:59;5.70;99.90
7972;DHT22;4031;49.758;6.120;2023-04-25T03:30:25;5.70;99.90
7972;DHT22;4031;49.758;6.120;2023-04-25T03:32:50;5.60;99.90
7972;DHT22;4031;49.758;6.120;2023-04-25T03:35:16;5.60;99.90
7972;DHT22;4031;49.758;6.120;2023-04-25T03:37:42;5.60;99.90
7972;DHT22;4031;49.758;6.120;2023-04-25T03:40:11;5.50;99.90
7972;DHT22;4031;49.758;6.120;2023-04-25T03:42:37;5.50;99.90
7972;DHT22;4031;49.758;6.120;2023-04-25T03:45:03;5.50;99.90
7972;DHT22;4031;49.758;6.120;2023-04-25T03:47:29;5.40;99.90
7972;DHT22;4031;49.758;6.120;2023-04-25T03:49:55;5.40;99.90
7972;DHT22;4031;49.758;6.120;2023-04-25T03:52:20;5.40;99.90
7972;DHT22;4031;49.758;6.120;2023-04-25T03:54:46;5.40;99.90
7972;DHT22;4031;49.758;6.120;2023-04-25T03:57:12;5.40;99.90
7972;DHT22;4031;49.758;6.120;2023-04-25T03:59:37;5.40;99.90
7972;DHT22;4031;49.758;6.120;2023-04-25T04:02:03;5.40;99.90
7972;DHT22;4031;49.758;6.120;2023-04-25T04:04:29;5.40;99.90
7972;DHT22;4031;49.758;6.120;2023-04-25T04:06:55;5.40;99.90
7972;DHT22;4031;49.758;6.120;2023-04-25T04:09:21;5.40;99.90
7972;DHT22;4031;49.758;6.120;2023-04-25T04:11:47;5.50;99.90
7972;DHT22;4031;49.758;6.120;2023-04-25T04:14:13;5.50;99.90
7972;DHT22;4031;49.758;6.120;2023-04-25T04:16:38;5.50;99.90
7972;DHT22;4031;49.758;6.120;2023-04-25T04:19:04;5.50;99.90
7972;DHT22;4031;49.758;6.120;2023-04-25T04:21:30;5.70;99.90
7972;DHT22;4031;49.758;6.120;2023-04-25T04:23:57;5.60;99.90
7972;DHT22;4031;49.758;6.120;2023-04-25T04:26:25;5.60;99.90
7972;DHT22;4031;49.758;6.120;2023-04-25T04:28:51;5.60;99.90
7972;DHT22;4031;49.758;6.120;2023-04-25T04:31:22;5.60;99.90
7972;DHT22;4031;49.758;6.120;2023-04-25T04:33:47;5.60;99.90
7972;DHT22;4031;49.758;6.120;2023-04-25T04:36:13;5.60;99.90
7972;DHT22;4031;49.758;6.120;2023-04-25T04:38:39;5.60;99.90
7972;DHT22;4031;49.758;6.120;2023-04-25T04:41:06;5.60;99.90
7972;DHT22;4031;49.758;6.120;2023-04-25T04:43:32;5.60;99.90
7972;DHT22;4031;49.758;6.120;2023-04-25T04:46:02;5.60;99.90
7972;DHT22;4031;49.758;6.120;2023-04-25T04:48:29;5.60;99.90
7972;DHT22;4031;49.758;6.120;2023-04-25T04:50:58;5.70;99.90
7972;DHT22;4031;49.758;6.120;2023-04-25T04:53:24;5.70;99.90
7972;DHT22;4031;49.758;6.120;2023-04-25T04:55:49;5.70;99.90
7972;DHT22;4031;49.758;6.120;2023-04-25T04:58:15;5.80;99.90
7972;DHT22;4031;49.758;6.120;2023-04-25T05:00:41;5.80;99.90
7972;DHT22;4031;49.758;6.120;2023-04-25T05:03:07;5.80;99.90
7972;DHT22;4031;49.758;6.120;2023-04-25T05:05:32;5.90;99.90
7972;DHT22;4031;49.758;6.120;2023-04-25T05:07:58;5.90;99.90
7972;DHT22;4031;49.758;6.120;2023-04-25T05:10:25;5.90;99.90
7972;DHT22;4031;49.758;6.120;2023-04-25T05:12:51;6.00;99.90
7972;DHT22;4031;49.758;6.120;2023-04-25T05:15:16;6.10;99.90
7972;DHT22;4031;49.758;6.120;2023-04-25T05:17:42;6.10;99.90
7972;DHT22;4031;49.758;6.120;2023-04-25T05:20:08;6.20;99.90
7972;DHT22;4031;49.758;6.120;2023-04-25T05:22:35;6.30;99.90
7972;DHT22;4031;49.758;6.120;2023-04-25T05:25:01;6.30;99.90
7972;DHT22;4031;49.758;6.120;2023-04-25T05:27:26;6.40;99.90
7972;DHT22;4031;49.758;6.120;2023-04-25T05:29:52;6.50;99.90
7972;DHT22;4031;49.758;6.120;2023-04-25T05:32:18;6.60;99.90
7972;DHT22;4031;49.758;6.120;2023-04-25T05:34:43;6.80;99.90
7972;DHT22;4031;49.758;6.120;2023-04-25T05:37:09;6.90;99.90
7972;DHT22;4031;49.758;6.120;2023-04-25T05:39:35;7.00;99.90
7972;DHT22;4031;49.758;6.120;2023-04-25T05:42:01;7.10;99.90
7972;DHT22;4031;49.758;6.120;2023-04-25T05:44:27;7.20;99.90
7972;DHT22;4031;49.758;6.120;2023-04-25T05:46:53;7.30;99.90
7972;DHT22;4031;49.758;6.120;2023-04-25T05:49:19;7.30;99.90
7972;DHT22;4031;49.758;6.120;2023-04-25T05:51:44;7.30;99.90
7972;DHT22;4031;49.758;6.120;2023-04-25T05:54:10;7.10;99.90
7972;DHT22;4031;49.758;6.120;2023-04-25T05:56:36;7.20;99.90
7972;DHT22;4031;49.758;6.120;2023-04-25T05:59:02;7.20;99.90
7972;DHT22;4031;49.758;6.120;2023-04-25T06:01:28;7.30;99.90
7972;DHT22;4031;49.758;6.120;2023-04-25T06:03:54;7.40;99.90
7972;DHT22;4031;49.758;6.120;2023-04-25T06:06:19;7.40;99.90
7972;DHT22;4031;49.758;6.120;2023-04-25T06:08:45;7.50;99.90
7972;DHT22;4031;49.758;6.120;2023-04-25T06:11:11;7.50;99.90
7972;DHT22;4031;49.758;6.120;2023-04-25T06:13:37;7.70;99.90
7972;DHT22;4031;49.758;6.120;2023-04-25T06:16:03;7.80;99.90
7972;DHT22;4031;49.758;6.120;2023-04-25T06:18:28;7.80;99.90
7972;DHT22;4031;49.758;6.120;2023-04-25T06:20:54;7.80;99.90
7972;DHT22;4031;49.758;6.120;2023-04-25T06:23:20;7.80;99.90
7972;DHT22;4031;49.758;6.120;2023-04-25T06:25:46;7.70;99.90
7972;DHT22;4031;49.758;6.120;2023-04-25T06:28:11;7.70;99.90
7972;DHT22;4031;49.758;6.120;2023-04-25T06:30:37;7.60;99.90
7972;DHT22;4031;49.758;6.120;2023-04-25T06:33:03;7.80;99.90
7972;DHT22;4031;49.758;6.120;2023-04-25T06:35:28;7.80;99.90
7972;DHT22;4031;49.758;6.120;2023-04-25T06:37:54;8.00;99.90
7972;DHT22;4031;49.758;6.120;2023-04-25T06:40:20;8.00;99.90
7972;DHT22;4031;49.758;6.120;2023-04-25T06:42:46;7.90;99.90
7972;DHT22;4031;49.758;6.120;2023-04-25T06:45:12;8.00;99.90
7972;DHT22;4031;49.758;6.120;2023-04-25T06:47:37;8.00;99.90
7972;DHT22;4031;49.758;6.120;2023-04-25T06:50:04;7.90;99.90
7972;DHT22;4031;49.758;6.120;2023-04-25T06:52:30;7.70;99.90
7972;DHT22;4031;49.758;6.120;2023-04-25T06:54:55;7.70;99.90
7972;DHT22;4031;49.758;6.120;2023-04-25T06:57:21;7.60;99.90
7972;DHT22;4031;49.758;6.120;2023-04-25T06:59:47;7.50;99.90
7972;DHT22;4031;49.758;6.120;2023-04-25T07:02:12;7.40;99.90
7972;DHT22;4031;49.758;6.120;2023-04-25T07:04:38;7.40;99.90
7972;DHT22;4031;49.758;6.120;2023-04-25T07:07:04;7.30;99.90
7972;DHT22;4031;49.758;6.120;2023-04-25T07:09:30;7.20;99.90
7972;DHT22;4031;49.758;6.120;2023-04-25T07:11:59;7.10;99.90
7972;DHT22;4031;49.758;6.120;2023-04-25T07:14:27;7.10;99.90
7972;DHT22;4031;49.758;6.120;2023-04-25T07:16:52;7.00;99.90
7972;DHT22;4031;49.758;6.120;2023-04-25T07:19:18;7.00;99.90
7972;DHT22;4031;49.758;6.120;2023-04-25T07:21:44;7.00;99.90
7972;DHT22;4031;49.758;6.120;2023-04-25T07:24:10;6.90;99.90
7972;DHT22;4031;49.758;6.120;2023-04-25T07:26:35;6.90;99.90
7972;DHT22;4031;49.758;6.120;2023-04-25T07:29:01;7.00;99.90
7972;DHT22;4031;49.758;6.120;2023-04-25T07:31:27;7.00;99.90
7972;DHT22;4031;49.758;6.120;2023-04-25T07:33:53;7.10;99.90
7972;DHT22;4031;49.758;6.120;2023-04-25T07:36:19;7.10;99.90
7972;DHT22;4031;49.758;6.120;2023-04-25T07:38:45;7.20;99.90
7972;DHT22;4031;49.758;6.120;2023-04-25T07:41:10;7.30;99.90
7972;DHT22;4031;49.758;6.120;2023-04-25T07:43:36;7.40;99.90
7972;DHT22;4031;49.758;6.120;2023-04-25T07:46:02;7.50;99.90
7972;DHT22;4031;49.758;6.120;2023-04-25T07:48:28;7.50;99.90
7972;DHT22;4031;49.758;6.120;2023-04-25T07:50:53;7.60;99.90
7972;DHT22;4031;49.758;6.120;2023-04-25T07:53:19;7.60;99.90
7972;DHT22;4031;49.758;6.120;2023-04-25T07:55:45;7.70;99.90
7972;DHT22;4031;49.758;6.120;2023-04-25T07:58:11;7.80;99.90
7972;DHT22;4031;49.758;6.120;2023-04-25T08:00:37;8.00;99.90
7972;DHT22;4031;49.758;6.120;2023-04-25T08:03:03;8.00;99.90
7972;DHT22;4031;49.758;6.120;2023-04-25T08:05:29;7.90;99.90
7972;DHT22;4031;49.758;6.120;2023-04-25T08:07:55;7.90;99.90
7972;DHT22;4031;49.758;6.120;2023-04-25T08:10:22;7.80;99.90
7972;DHT22;4031;49.758;6.120;2023-04-25T08:12:48;7.80;99.90
7972;DHT22;4031;49.758;6.120;2023-04-25T08:15:14;7.80;99.90
7972;DHT22;4031;49.758;6.120;2023-04-25T08:17:40;7.90;99.90
7972;DHT22;4031;49.758;6.120;2023-04-25T08:20:06;7.90;99.90
7972;DHT22;4031;49.758;6.120;2023-04-25T08:22:32;7.90;99.90
7972;DHT22;4031;49.758;6.120;2023-04-25T08:24:59;7.90;99.90
7972;DHT22;4031;49.758;6.120;2023-04-25T08:27:25;7.90;99.90
7972;DHT22;4031;49.758;6.120;2023-04-25T08:29:50;7.90;99.90
7972;DHT22;4031;49.758;6.120;2023-04-25T08:32:16;7.90;99.90
7972;DHT22;4031;49.758;6.120;2023-04-25T08:34:43;8.00;99.90
7972;DHT22;4031;49.758;6.120;2023-04-25T08:37:09;7.90;99.90
7972;DHT22;4031;49.758;6.120;2023-04-25T08:39:36;7.90;99.90
7972;DHT22;4031;49.758;6.120;2023-04-25T08:42:06;7.90;99.90
7972;DHT22;4031;49.758;6.120;2023-04-25T08:44:36;7.90;99.90
7972;DHT22;4031;49.758;6.120;2023-04-25T08:47:05;7.90;99.90
7972;DHT22;4031;49.758;6.120;2023-04-25T08:49:34;7.80;99.90
7972;DHT22;4031;49.758;6.120;2023-04-25T08:52:03;7.70;99.90
7972;DHT22;4031;49.758;6.120;2023-04-25T08:54:31;7.50;99.90
7972;DHT22;4031;49.758;6.120;2023-04-25T08:57:00;7.40;99.90
7972;DHT22;4031;49.758;6.120;2023-04-25T08:59:30;7.40;99.90
7972;DHT22;4031;49.758;6.120;2023-04-25T09:01:58;7.40;99.90
7972;DHT22;4031;49.758;6.120;2023-04-25T09:04:24;7.40;99.90
7972;DHT22;4031;49.758;6.120;2023-04-25T09:06:49;7.40;99.90
7972;DHT22;4031;49.758;6.120;2023-04-25T09:09:15;7.30;99.90
7972;DHT22;4031;49.758;6.120;2023-04-25T09:11:41;7.30;99.90
7972;DHT22;4031;49.758;6.120;2023-04-25T09:14:16;7.40;99.90
7972;DHT22;4031;49.758;6.120;2023-04-25T09:16:59;7.40;99.90
7972;DHT22;4031;49.758;6.120;2023-04-25T09:19:31;7.40;99.90
7972;DHT22;4031;49.758;6.120;2023-04-25T09:21:59;7.40;99.90
7972;DHT22;4031;49.758;6.120;2023-04-25T09:24:38;7.40;99.90
7972;DHT22;4031;49.758;6.120;2023-04-25T09:27:08;7.40;99.90
7972;DHT22;4031;49.758;6.120;2023-04-25T09:29:37;7.60;99.90
7972;DHT22;4031;49.758;6.120;2023-04-25T09:34:45;8.20;99.90
7972;DHT22;4031;49.758;6.120;2023-04-25T09:37:23;8.40;99.90
7972;DHT22;4031;49.758;6.120;2023-04-25T09:39:55;8.40;99.90
7972;DHT22;4031;49.758;6.120;2023-04-25T09:42:28;8.60;99.90
7972;DHT22;4031;49.758;6.120;2023-04-25T09:44:55;8.80;99.90
7972;DHT22;4031;49.758;6.120;2023-04-25T09:47:23;8.90;99.90
7972;DHT22;4031;49.758;6.120;2023-04-25T09:49:51;9.10;99.90
7972;DHT22;4031;49.758;6.120;2023-04-25T09:52:20;9.30;99.90
7972;DHT22;4031;49.758;6.120;2023-04-25T09:54:48;9.50;99.90
7972;DHT22;4031;49.758;6.120;2023-04-25T09:57:20;9.80;99.90
7972;DHT22;4031;49.758;6.120;2023-04-25T09:59:48;10.00;99.90
7972;DHT22;4031;49.758;6.120;2023-04-25T10:02:17;10.50;99.90
7972;DHT22;4031;49.758;6.120;2023-04-25T10:04:48;12.10;99.90
7972;DHT22;4031;49.758;6.120;2023-04-25T10:07:16;13.70;99.90
7972;DHT22;4031;49.758;6.120;2023-04-25T10:09:47;15.60;99.90
7972;DHT22;4031;49.758;6.120;2023-04-25T10:12:15;16.80;99.90
7972;DHT22;4031;49.758;6.120;2023-04-25T10:14:42;18.10;99.90
7972;DHT22;4031;49.758;6.120;2023-04-25T10:17:10;18.40;99.90
7972;DHT22;4031;49.758;6.120;2023-04-25T10:19:37;17.50;99.90
7972;DHT22;4031;49.758;6.120;2023-04-25T10:22:07;16.60;99.90
7972;DHT22;4031;49.758;6.120;2023-04-25T10:24:38;16.30;99.90
7972;DHT22;4031;49.758;6.120;2023-04-25T10:27:05;16.40;99.90
7972;DHT22;4031;49.758;6.120;2023-04-25T10:29:31;16.40;99.90
7972;DHT22;4031;49.758;6.120;2023-04-25T10:31:57;15.70;99.90
7972;DHT22;4031;49.758;6.120;2023-04-25T10:34:43;14.90;99.90
7972;DHT22;4031;49.758;6.120;2023-04-25T10:37:12;14.40;99.90
7972;DHT22;4031;49.758;6.120;2023-04-25T10:39:40;14.10;99.90
7972;DHT22;4031;49.758;6.120;2023-04-25T10:42:07;13.90;99.90
7972;DHT22;4031;49.758;6.120;2023-04-25T10:44:34;13.90;99.90
7972;DHT22;4031;49.758;6.120;2023-04-25T10:47:01;13.60;99.90
7972;DHT22;4031;49.758;6.120;2023-04-25T10:49:36;12.90;99.90
7972;DHT22;4031;49.758;6.120;2023-04-25T10:52:16;12.60;99.90
7972;DHT22;4031;49.758;6.120;2023-04-25T10:54:55;12.30;99.90
7972;DHT22;4031;49.758;6.120;2023-04-25T11:00:18;12.10;99.90
7972;DHT22;4031;49.758;6.120;2023-04-25T11:02:58;12.10;99.90
7972;DHT22;4031;49.758;6.120;2023-04-25T11:05:35;12.20;99.90
7972;DHT22;4031;49.758;6.120;2023-04-25T11:08:02;12.50;99.90
7972;DHT22;4031;49.758;6.120;2023-04-25T11:10:32;12.40;99.90
7972;DHT22;4031;49.758;6.120;2023-04-25T11:13:00;12.20;99.90
7972;DHT22;4031;49.758;6.120;2023-04-25T11:15:26;11.60;99.90
7972;DHT22;4031;49.758;6.120;2023-04-25T11:17:53;10.90;99.90
7972;DHT22;4031;49.758;6.120;2023-04-25T11:20:19;10.30;99.90
7972;DHT22;4031;49.758;6.120;2023-04-25T11:22:46;10.10;99.90
7972;DHT22;4031;49.758;6.120;2023-04-25T11:25:14;10.00;99.90
7972;DHT22;4031;49.758;6.120;2023-04-25T11:27:54;10.40;99.90
7972;DHT22;4031;49.758;6.120;2023-04-25T11:30:23;11.20;99.90
7972;DHT22;4031;49.758;6.120;2023-04-25T11:32:49;12.00;99.90
7972;DHT22;4031;49.758;6.120;2023-04-25T11:35:16;13.00;99.90
7972;DHT22;4031;49.758;6.120;2023-04-25T11:37:43;13.90;99.90
7972;DHT22;4031;49.758;6.120;2023-04-25T11:40:10;14.20;99.90
7972;DHT22;4031;49.758;6.120;2023-04-25T11:42:37;14.80;99.90
7972;DHT22;4031;49.758;6.120;2023-04-25T11:45:05;14.90;99.90
7972;DHT22;4031;49.758;6.120;2023-04-25T11:47:32;14.50;99.90
7972;DHT22;4031;49.758;6.120;2023-04-25T11:49:59;14.10;99.90
7972;DHT22;4031;49.758;6.120;2023-04-25T11:55:14;13.30;99.90
7972;DHT22;4031;49.758;6.120;2023-04-25T11:57:41;12.90;99.90
7972;DHT22;4031;49.758;6.120;2023-04-25T12:00:15;12.20;99.90
7972;DHT22;4031;49.758;6.120;2023-04-25T12:02:44;11.60;99.90
7972;DHT22;4031;49.758;6.120;2023-04-25T12:05:12;11.20;99.90
7972;DHT22;4031;49.758;6.120;2023-04-25T12:07:38;10.80;99.90
7972;DHT22;4031;49.758;6.120;2023-04-25T12:10:09;10.50;99.90
7972;DHT22;4031;49.758;6.120;2023-04-25T12:12:43;10.30;99.90
7972;DHT22;4031;49.758;6.120;2023-04-25T12:17:51;10.50;99.90
7972;DHT22;4031;49.758;6.120;2023-04-25T12:20:20;10.80;99.90
7972;DHT22;4031;49.758;6.120;2023-04-25T12:22:49;11.00;99.90
7972;DHT22;4031;49.758;6.120;2023-04-25T12:25:35;11.10;99.90
7972;DHT22;4031;49.758;6.120;2023-04-25T12:28:17;11.30;99.90
7972;DHT22;4031;49.758;6.120;2023-04-25T12:31:05;11.60;99.90
7972;DHT22;4031;49.758;6.120;2023-04-25T12:33:33;12.20;99.90
7972;DHT22;4031;49.758;6.120;2023-04-25T12:36:01;12.80;99.90
7972;DHT22;4031;49.758;6.120;2023-04-25T12:38:39;13.40;99.90
7972;DHT22;4031;49.758;6.120;2023-04-25T12:41:06;13.80;99.90
7972;DHT22;4031;49.758;6.120;2023-04-25T12:43:32;14.00;99.90
7972;DHT22;4031;49.758;6.120;2023-04-25T12:45:58;14.40;99.90
7972;DHT22;4031;49.758;6.120;2023-04-25T12:48:24;14.60;99.90
7972;DHT22;4031;49.758;6.120;2023-04-25T12:50:50;14.60;99.90
7972;DHT22;4031;49.758;6.120;2023-04-25T12:53:18;14.20;99.90
7972;DHT22;4031;49.758;6.120;2023-04-25T12:55:45;13.40;99.90
7972;DHT22;4031;49.758;6.120;2023-04-25T12:58:14;12.60;99.90
7972;DHT22;4031;49.758;6.120;2023-04-25T13:00:43;12.00;99.90
7972;DHT22;4031;49.758;6.120;2023-04-25T13:03:09;11.90;99.90
7972;DHT22;4031;49.758;6.120;2023-04-25T13:05:37;12.10;99.90
7972;DHT22;4031;49.758;6.120;2023-04-25T13:08:03;12.00;99.90
7972;DHT22;4031;49.758;6.120;2023-04-25T13:10:29;12.00;99.90
7972;DHT22;4031;49.758;6.120;2023-04-25T13:12:55;12.00;99.90
7972;DHT22;4031;49.758;6.120;2023-04-25T13:15:21;12.50;99.90
7972;DHT22;4031;49.758;6.120;2023-04-25T13:17:47;12.80;99.90
7972;DHT22;4031;49.758;6.120;2023-04-25T13:20:13;13.00;99.90
7972;DHT22;4031;49.758;6.120;2023-04-25T13:22:40;13.10;99.90
7972;DHT22;4031;49.758;6.120;2023-04-25T13:25:07;13.10;99.90
7972;DHT22;4031;49.758;6.120;2023-04-25T13:27:35;13.40;99.90
7972;DHT22;4031;49.758;6.120;2023-04-25T13:30:03;13.50;99.90
7972;DHT22;4031;49.758;6.120;2023-04-25T13:32:36;13.90;99.90
7972;DHT22;4031;49.758;6.120;2023-04-25T13:35:05;14.20;99.90
7972;DHT22;4031;49.758;6.120;2023-04-25T13:37:32;14.40;99.90
7972;DHT22;4031;49.758;6.120;2023-04-25T13:40:05;14.10;99.90
7972;DHT22;4031;49.758;6.120;2023-04-25T13:42:34;13.80;99.90
7972;DHT22;4031;49.758;6.120;2023-04-25T13:45:00;13.30;99.90
7972;DHT22;4031;49.758;6.120;2023-04-25T13:47:26;13.70;99.90
7972;DHT22;4031;49.758;6.120;2023-04-25T13:49:53;14.70;99.90
7972;DHT22;4031;49.758;6.120;2023-04-25T13:52:19;15.70;99.90
7972;DHT22;4031;49.758;6.120;2023-04-25T13:54:46;16.00;99.90
7972;DHT22;4031;49.758;6.120;2023-04-25T13:57:12;16.10;99.90
7972;DHT22;4031;49.758;6.120;2023-04-25T13:59:39;15.90;99.90
7972;DHT22;4031;49.758;6.120;2023-04-25T14:02:06;14.70;99.90
7972;DHT22;4031;49.758;6.120;2023-04-25T14:04:32;13.50;99.90
7972;DHT22;4031;49.758;6.120;2023-04-25T14:06:58;12.60;99.90
7972;DHT22;4031;49.758;6.120;2023-04-25T14:09:25;12.00;99.90
7972;DHT22;4031;49.758;6.120;2023-04-25T14:11:52;11.60;99.90
7972;DHT22;4031;49.758;6.120;2023-04-25T14:14:19;11.30;99.90
7972;DHT22;4031;49.758;6.120;2023-04-25T14:16:46;11.50;99.90
7972;DHT22;4031;49.758;6.120;2023-04-25T14:19:14;11.60;99.90
7972;DHT22;4031;49.758;6.120;2023-04-25T14:21:40;11.80;99.90
7972;DHT22;4031;49.758;6.120;2023-04-25T14:24:06;12.00;99.90
7972;DHT22;4031;49.758;6.120;2023-04-25T14:26:33;12.10;99.90
7972;DHT22;4031;49.758;6.120;2023-04-25T14:29:00;12.30;99.90
7972;DHT22;4031;49.758;6.120;2023-04-25T14:31:26;12.50;99.90
7972;DHT22;4031;49.758;6.120;2023-04-25T14:33:53;12.30;99.90
7972;DHT22;4031;49.758;6.120;2023-04-25T14:36:19;12.30;99.90
7972;DHT22;4031;49.758;6.120;2023-04-25T14:38:44;12.40;99.90
7972;DHT22;4031;49.758;6.120;2023-04-25T14:41:10;12.60;99.90
7972;DHT22;4031;49.758;6.120;2023-04-25T14:43:36;13.30;99.90
7972;DHT22;4031;49.758;6.120;2023-04-25T14:46:02;14.50;99.90
7972;DHT22;4031;49.758;6.120;2023-04-25T14:48:29;15.90;99.90
7972;DHT22;4031;49.758;6.120;2023-04-25T14:50:55;16.80;99.90
7972;DHT22;4031;49.758;6.120;2023-04-25T14:53:22;16.70;99.90
7972;DHT22;4031;49.758;6.120;2023-04-25T14:55:48;15.90;99.90
7972;DHT22;4031;49.758;6.120;2023-04-25T14:58:14;14.80;99.90
7972;DHT22;4031;49.758;6.120;2023-04-25T15:00:40;13.90;99.90
7972;DHT22;4031;49.758;6.120;2023-04-25T15:03:06;13.20;99.90
7972;DHT22;4031;49.758;6.120;2023-04-25T15:05:33;12.40;99.90
7972;DHT22;4031;49.758;6.120;2023-04-25T15:07:59;11.90;99.90
7972;DHT22;4031;49.758;6.120;2023-04-25T15:10:25;11.50;99.90
7972;DHT22;4031;49.758;6.120;2023-04-25T15:12:51;11.40;99.90
7972;DHT22;4031;49.758;6.120;2023-04-25T15:15:19;11.40;99.90
7972;DHT22;4031;49.758;6.120;2023-04-25T15:17:44;11.40;99.90
7972;DHT22;4031;49.758;6.120;2023-04-25T15:20:11;11.40;99.90
7972;DHT22;4031;49.758;6.120;2023-04-25T15:22:42;11.20;99.90
7972;DHT22;4031;49.758;6.120;2023-04-25T15:25:09;11.10;99.90
7972;DHT22;4031;49.758;6.120;2023-04-25T15:27:39;10.90;99.90
7972;DHT22;4031;49.758;6.120;2023-04-25T15:30:11;10.70;99.90
7972;DHT22;4031;49.758;6.120;2023-04-25T15:32:39;10.50;99.90
7972;DHT22;4031;49.758;6.120;2023-04-25T15:35:05;10.30;99.90
7972;DHT22;4031;49.758;6.120;2023-04-25T15:37:32;10.20;99.90
7972;DHT22;4031;49.758;6.120;2023-04-25T15:40:08;10.20;99.90
7972;DHT22;4031;49.758;6.120;2023-04-25T15:42:44;10.10;99.90
7972;DHT22;4031;49.758;6.120;2023-04-25T15:45:12;10.20;99.90
7972;DHT22;4031;49.758;6.120;2023-04-25T15:47:39;10.30;99.90
7972;DHT22;4031;49.758;6.120;2023-04-25T15:50:07;10.40;99.90
7972;DHT22;4031;49.758;6.120;2023-04-25T15:52:34;10.50;99.90
7972;DHT22;4031;49.758;6.120;2023-04-25T15:55:01;10.40;99.90
7972;DHT22;4031;49.758;6.120;2023-04-25T15:57:27;10.40;99.90
7972;DHT22;4031;49.758;6.120;2023-04-25T15:59:52;10.40;99.90
7972;DHT22;4031;49.758;6.120;2023-04-25T16:02:18;10.30;99.90
7972;DHT22;4031;49.758;6.120;2023-04-25T16:04:45;10.30;99.90
7972;DHT22;4031;49.758;6.120;2023-04-25T16:07:12;10.30;99.90
7972;DHT22;4031;49.758;6.120;2023-04-25T16:09:38;10.30;99.90
7972;DHT22;4031;49.758;6.120;2023-04-25T16:12:05;10.30;99.90
7972;DHT22;4031;49.758;6.120;2023-04-25T16:14:32;10.30;99.90
7972;DHT22;4031;49.758;6.120;2023-04-25T16:16:58;10.30;99.90
7972;DHT22;4031;49.758;6.120;2023-04-25T16:19:23;10.30;99.90
7972;DHT22;4031;49.758;6.120;2023-04-25T16:21:50;10.30;99.90